sensor_id;sensor_type;location;lat;lon;timestamp;temperature;humidity
19654;DHT22;9975;48.046;7.804;2023-07-29T01:56:32;16.80;99.90
19654;DHT22;9975;48.046;7.804;2023-07-29T01:58:57;16.90;99.90
19654;DHT22;9975;48.046;7.804;2023-07-29T02:01:23;16.90;99.90
19654;DHT22;9975;48.046;7.804;2023-07-29T02:03:48;16.90;99.90
19654;DHT22;9975;48.046;7.804;2023-07-29T02:06:20;17.00;99.90
19654;DHT22;9975;48.046;7.804;2023-07-29T02:08:45;17.00;99.90
19654;DHT22;9975;48.046;7.804;2023-07-29T02:11:11;17.00;99.90
19654;DHT22;9975;48.046;7.804;2023-07-29T02:13:37;17.00;99.90
19654;DHT22;9975;48.046;7.804;2023-07-29T02:16:02;17.00;99.90
19654;DHT22;9975;48.046;7.804;2023-07-29T02:18:28;17.00;99.90
19654;DHT22;9975;48.046;7.804;2023-07-29T02:20:53;17.00;99.90
19654;DHT22;9975;48.046;7.804;2023-07-29T02:23:19;17.00;99.90
19654;DHT22;9975;48.046;7.804;2023-07-29T02:25:45;17.00;99.90
19654;DHT22;9975;48.046;7.804;2023-07-29T02:28:10;17.00;99.90
19654;DHT22;9975;48.046;7.804;2023-07-29T02:30:36;17.10;99.90
19654;DHT22;9975;48.046;7.804;2023-07-29T02:33:02;17.10;99.90
19654;DHT22;9975;48.046;7.804;2023-07-29T02:35:28;17.10;99.90
19654;DHT22;9975;48.046;7.804;2023-07-29T02:37:54;17.10;99.90
19654;DHT22;9975;48.046;7.804;2023-07-29T02:40:19;17.10;99.90
19654;DHT22;9975;48.046;7.804;2023-07-29T02:42:46;17.10;99.90
19654;DHT22;9975;48.046;7.804;2023-07-29T02:45:12;17.10;99.90
19654;DHT22;9975;48.046;7.804;2023-07-29T02:47:38;17.10;99.90
19654;DHT22;9975;48.046;7.804;2023-07-29T02:50:04;17.10;99.90
19654;DHT22;9975;48.046;7.804;2023-07-29T02:52:30;17.10;99.90
19654;DHT22;9975;48.046;7.804;2023-07-29T02:54:55;17.20;99.90
19654;DHT22;9975;48.046;7.804;2023-07-29T02:57:21;17.10;99.90
19654;DHT22;9975;48.046;7.804;2023-07-29T02:59:46;17.20;99.90
19654;DHT22;9975;48.046;7.804;2023-07-29T03:02:12;17.10;99.90
19654;DHT22;9975;48.046;7.804;2023-07-29T03:04:38;17.30;99.90
19654;DHT22;9975;48.046;7.804;2023-07-29T03:07:03;17.20;99.90
19654;DHT22;9975;48.046;7.804;2023-07-29T03:09:29;17.20;99.90
19654;DHT22;9975;48.046;7.804;2023-07-29T03:11:55;17.20;99.90
19654;DHT22;9975;48.046;7.804;2023-07-29T03:14:21;17.20;99.90
19654;DHT22;9975;48.046;7.804;2023-07-29T03:16:46;17.10;99.90
19654;DHT22;9975;48.046;7.804;2023-07-29T03:19:12;17.20;99.90
19654;DHT22;9975;48.046;7.804;2023-07-29T03:21:38;17.10;99.90
19654;DHT22;9975;48.046;7.804;2023-07-29T03:24:04;17.10;99.90
19654;DHT22;9975;48.046;7.804;2023-07-29T03:26:29;17.20;99.90
19654;DHT22;9975;48.046;7.804;2023-07-29T03:28:55;17.20;99.90
19654;DHT22;9975;48.046;7.804;2023-07-29T03:31:20;17.20;99.90
19654;DHT22;9975;48.046;7.804;2023-07-29T03:33:46;17.10;99.90
19654;DHT22;9975;48.046;7.804;2023-07-29T03:36:12;17.10;99.90
19654;DHT22;9975;48.046;7.804;2023-07-29T03:38:37;17.20;99.90
19654;DHT22;9975;48.046;7.804;2023-07-29T03:41:07;17.10;99.90
19654;DHT22;9975;48.046;7.804;2023-07-29T03:43:34;17.10;99.90
19654;DHT22;9975;48.046;7.804;2023-07-29T03:46:00;17.10;99.90
19654;DHT22;9975;48.046;7.804;2023-07-29T03:48:26;17.10;99.90
19654;DHT22;9975;48.046;7.804;2023-07-29T03:50:51;17.10;99.90
19654;DHT22;9975;48.046;7.804;2023-07-29T03:53:17;17.10;99.90
19654;DHT22;9975;48.046;7.804;2023-07-29T03:55:43;17.10;99.90
19654;DHT22;9975;48.046;7.804;2023-07-29T03:58:09;17.00;99.90
19654;DHT22;9975;48.046;7.804;2023-07-29T04:00:34;17.10;99.90
19654;DHT22;9975;48.046;7.804;2023-07-29T04:03:00;17.10;99.90
19654;DHT22;9975;48.046;7.804;2023-07-29T04:05:26;17.10;99.90
19654;DHT22;9975;48.046;7.804;2023-07-29T04:07:51;17.20;99.90
19654;DHT22;9975;48.046;7.804;2023-07-29T04:10:19;17.20;99.90
19654;DHT22;9975;48.046;7.804;2023-07-29T04:12:45;17.20;99.90
19654;DHT22;9975;48.046;7.804;2023-07-29T04:15:10;17.20;99.90
19654;DHT22;9975;48.046;7.804;2023-07-29T04:17:36;17.20;99.90
19654;DHT22;9975;48.046;7.804;2023-07-29T04:20:02;17.20;99.90
19654;DHT22;9975;48.046;7.804;2023-07-29T04:22:28;17.20;99.90
19654;DHT22;9975;48.046;7.804;2023-07-29T04:24:53;17.20;99.90
19654;DHT22;9975;48.046;7.804;2023-07-29T04:27:19;17.20;99.90
19654;DHT22;9975;48.046;7.804;2023-07-29T04:29:44;17.20;99.90
19654;DHT22;9975;48.046;7.804;2023-07-29T04:32:10;17.20;99.90
19654;DHT22;9975;48.046;7.804;2023-07-29T04:34:36;17.30;99.90
19654;DHT22;9975;48.046;7.804;2023-07-29T04:37:01;17.20;99.90
19654;DHT22;9975;48.046;7.804;2023-07-29T04:39:27;17.30;99.90
19654;DHT22;9975;48.046;7.804;2023-07-29T04:41:52;17.20;99.90
19654;DHT22;9975;48.046;7.804;2023-07-29T04:44:18;17.20;99.90
19654;DHT22;9975;48.046;7.804;2023-07-29T04:46:44;17.20;99.90
19654;DHT22;9975;48.046;7.804;2023-07-29T04:49:09;17.30;99.90
19654;DHT22;9975;48.046;7.804;2023-07-29T04:51:37;17.30;99.90
19654;DHT22;9975;48.046;7.804;2023-07-29T04:54:02;17.40;99.90
19654;DHT22;9975;48.046;7.804;2023-07-29T04:56:28;17.50;99.90
19654;DHT22;9975;48.046;7.804;2023-07-29T04:58:54;17.50;99.90
19654;DHT22;9975;48.046;7.804;2023-07-29T05:01:19;17.40;99.90
19654;DHT22;9975;48.046;7.804;2023-07-29T05:03:45;17.50;99.90
19654;DHT22;9975;48.046;7.804;2023-07-29T05:06:11;17.50;99.90
19654;DHT22;9975;48.046;7.804;2023-07-29T05:08:36;17.50;99.90
19654;DHT22;9975;48.046;7.804;2023-07-29T05:11:02;17.60;99.90
19654;DHT22;9975;48.046;7.804;2023-07-29T05:13:27;17.60;99.90
19654;DHT22;9975;48.046;7.804;2023-07-29T05:15:53;17.70;99.90
19654;DHT22;9975;48.046;7.804;2023-07-29T05:18:19;17.70;99.90
19654;DHT22;9975;48.046;7.804;2023-07-29T05:20:45;17.80;99.90
19654;DHT22;9975;48.046;7.804;2023-07-29T05:23:10;17.80;99.90
19654;DHT22;9975;48.046;7.804;2023-07-29T05:25:36;17.90;99.90
19654;DHT22;9975;48.046;7.804;2023-07-29T05:28:02;18.10;99.90
19654;DHT22;9975;48.046;7.804;2023-07-29T05:30:28;18.20;99.90
19654;DHT22;9975;48.046;7.804;2023-07-29T05:32:57;18.30;99.90
19654;DHT22;9975;48.046;7.804;2023-07-29T05:35:23;18.40;99.90
19654;DHT22;9975;48.046;7.804;2023-07-29T05:37:48;18.60;99.90
19654;DHT22;9975;48.046;7.804;2023-07-29T05:40:15;18.70;99.90
19654;DHT22;9975;48.046;7.804;2023-07-29T05:42:41;18.80;99.90
19654;DHT22;9975;48.046;7.804;2023-07-29T05:45:07;18.90;99.90
19654;DHT22;9975;48.046;7.804;2023-07-29T05:47:33;18.90;99.90
19654;DHT22;9975;48.046;7.804;2023-07-29T05:49:59;18.90;99.90
19654;DHT22;9975;48.046;7.804;2023-07-29T05:52:27;18.90;99.90
19654;DHT22;9975;48.046;7.804;2023-07-29T05:54:52;18.90;99.90
19654;DHT22;9975;48.046;7.804;2023-07-29T05:57:18;18.90;99.90
19654;DHT22;9975;48.046;7.804;2023-07-29T05:59:44;18.90;99.90
19654;DHT22;9975;48.046;7.804;2023-07-29T06:02:09;18.90;99.90
19654;DHT22;9975;48.046;7.804;2023-07-29T06:04:35;18.90;99.90
19654;DHT22;9975;48.046;7.804;2023-07-29T06:07:00;18.90;99.90
19654;DHT22;9975;48.046;7.804;2023-07-29T06:09:26;19.00;99.90
19654;DHT22;9975;48.046;7.804;2023-07-29T06:11:51;19.00;99.90
19654;DHT22;9975;48.046;7.804;2023-07-29T06:14:17;19.00;99.90
19654;DHT22;9975;48.046;7.804;2023-07-29T06:16:43;19.00;99.90
19654;DHT22;9975;48.046;7.804;2023-07-29T06:19:08;19.00;99.90
19654;DHT22;9975;48.046;7.804;2023-07-29T06:21:34;19.00;99.90
19654;DHT22;9975;48.046;7.804;2023-07-29T06:24:00;19.00;99.90
19654;DHT22;9975;48.046;7.804;2023-07-29T06:26:26;19.00;99.90
19654;DHT22;9975;48.046;7.804;2023-07-29T06:28:51;19.00;99.90
19654;DHT22;9975;48.046;7.804;2023-07-29T06:31:17;19.00;99.90
19654;DHT22;9975;48.046;7.804;2023-07-29T06:33:43;18.90;99.90
19654;DHT22;9975;48.046;7.804;2023-07-29T06:36:08;18.90;99.90
19654;DHT22;9975;48.046;7.804;2023-07-29T06:38:34;19.00;99.90
19654;DHT22;9975;48.046;7.804;2023-07-29T06:40:59;19.00;99.90
19654;DHT22;9975;48.046;7.804;2023-07-29T06:43:25;19.00;99.90
19654;DHT22;9975;48.046;7.804;2023-07-29T06:45:51;19.00;99.90
19654;DHT22;9975;48.046;7.804;2023-07-29T06:48:18;19.00;99.90
19654;DHT22;9975;48.046;7.804;2023-07-29T06:50:45;19.10;99.90
19654;DHT22;9975;48.046;7.804;2023-07-29T06:53:11;19.10;99.90
19654;DHT22;9975;48.046;7.804;2023-07-29T06:55:37;19.10;99.90
19654;DHT22;9975;48.046;7.804;2023-07-29T06:58:03;19.20;99.90
19654;DHT22;9975;48.046;7.804;2023-07-29T07:00:28;19.30;99.90
19654;DHT22;9975;48.046;7.804;2023-07-29T07:02:54;19.40;99.90
19654;DHT22;9975;48.046;7.804;2023-07-29T07:05:19;19.50;99.90
19654;DHT22;9975;48.046;7.804;2023-07-29T07:07:45;19.60;99.90
19654;DHT22;9975;48.046;7.804;2023-07-29T07:10:11;19.70;99.90
19654;DHT22;9975;48.046;7.804;2023-07-29T07:12:36;19.70;99.90
19654;DHT22;9975;48.046;7.804;2023-07-29T07:15:02;19.80;99.90
19654;DHT22;9975;48.046;7.804;2023-07-29T07:17:28;19.90;99.90
19654;DHT22;9975;48.046;7.804;2023-07-29T07:19:54;20.00;99.90
19654;DHT22;9975;48.046;7.804;2023-07-29T07:22:19;20.00;99.90
19654;DHT22;9975;48.046;7.804;2023-07-29T07:24:45;20.10;99.90
19654;DHT22;9975;48.046;7.804;2023-07-29T07:27:10;20.20;99.90
19654;DHT22;9975;48.046;7.804;2023-07-29T07:29:36;20.30;99.90
19654;DHT22;9975;48.046;7.804;2023-07-29T07:32:02;20.50;99.90
19654;DHT22;9975;48.046;7.804;2023-07-29T07:34:27;20.70;99.90
19654;DHT22;9975;48.046;7.804;2023-07-29T07:36:53;20.80;99.90
19654;DHT22;9975;48.046;7.804;2023-07-29T07:39:19;20.90;99.90
19654;DHT22;9975;48.046;7.804;2023-07-29T07:41:44;21.00;99.90
19654;DHT22;9975;48.046;7.804;2023-07-29T07:44:10;21.10;99.90
19654;DHT22;9975;48.046;7.804;2023-07-29T07:46:38;21.20;99.90
19654;DHT22;9975;48.046;7.804;2023-07-29T07:49:03;21.40;99.90
19654;DHT22;9975;48.046;7.804;2023-07-29T07:51:29;21.40;99.90
19654;DHT22;9975;48.046;7.804;2023-07-29T07:53:55;21.60;99.90
19654;DHT22;9975;48.046;7.804;2023-07-29T07:56:20;21.70;99.90
19654;DHT22;9975;48.046;7.804;2023-07-29T07:58:46;21.70;99.90
19654;DHT22;9975;48.046;7.804;2023-07-29T08:01:12;21.90;99.90
19654;DHT22;9975;48.046;7.804;2023-07-29T08:03:37;22.10;99.90
19654;DHT22;9975;48.046;7.804;2023-07-29T08:06:03;22.30;99.90
19654;DHT22;9975;48.046;7.804;2023-07-29T08:08:29;22.40;99.90
19654;DHT22;9975;48.046;7.804;2023-07-29T08:10:57;22.60;99.90
19654;DHT22;9975;48.046;7.804;2023-07-29T08:13:23;22.80;99.90
19654;DHT22;9975;48.046;7.804;2023-07-29T08:15:51;22.90;99.90
19654;DHT22;9975;48.046;7.804;2023-07-29T08:18:18;23.00;99.90
19654;DHT22;9975;48.046;7.804;2023-07-29T08:20:54;23.10;99.90
19654;DHT22;9975;48.046;7.804;2023-07-29T08:23:21;23.00;99.90
19654;DHT22;9975;48.046;7.804;2023-07-29T08:25:58;22.90;99.90
19654;DHT22;9975;48.046;7.804;2023-07-29T08:28:31;22.90;99.90
19654;DHT22;9975;48.046;7.804;2023-07-29T08:30:58;22.80;99.90
19654;DHT22;9975;48.046;7.804;2023-07-29T08:33:24;22.80;99.90
19654;DHT22;9975;48.046;7.804;2023-07-29T08:35:50;22.90;99.90
19654;DHT22;9975;48.046;7.804;2023-07-29T08:38:15;22.90;99.90
19654;DHT22;9975;48.046;7.804;2023-07-29T08:41:13;23.00;99.90
19654;DHT22;9975;48.046;7.804;2023-07-29T08:43:56;23.30;99.90
19654;DHT22;9975;48.046;7.804;2023-07-29T08:46:25;23.60;99.90
19654;DHT22;9975;48.046;7.804;2023-07-29T08:48:51;23.70;99.90
19654;DHT22;9975;48.046;7.804;2023-07-29T08:51:17;23.80;99.90
19654;DHT22;9975;48.046;7.804;2023-07-29T08:53:45;24.00;99.90
19654;DHT22;9975;48.046;7.804;2023-07-29T08:56:11;24.20;99.90
19654;DHT22;9975;48.046;7.804;2023-07-29T08:58:37;24.20;99.90
19654;DHT22;9975;48.046;7.804;2023-07-29T09:01:04;24.30;99.90
19654;DHT22;9975;48.046;7.804;2023-07-29T09:03:31;24.10;99.90
19654;DHT22;9975;48.046;7.804;2023-07-29T09:05:58;24.10;99.90
19654;DHT22;9975;48.046;7.804;2023-07-29T09:08:27;24.00;99.90
19654;DHT22;9975;48.046;7.804;2023-07-29T09:10:54;23.90;99.90
19654;DHT22;9975;48.046;7.804;2023-07-29T09:13:21;24.00;99.90
19654;DHT22;9975;48.046;7.804;2023-07-29T09:15:46;24.00;99.90
19654;DHT22;9975;48.046;7.804;2023-07-29T09:18:16;23.90;99.90
19654;DHT22;9975;48.046;7.804;2023-07-29T09:20:42;23.90;99.90
19654;DHT22;9975;48.046;7.804;2023-07-29T09:23:09;23.90;99.90
19654;DHT22;9975;48.046;7.804;2023-07-29T09:25:38;23.90;99.90
19654;DHT22;9975;48.046;7.804;2023-07-29T09:28:11;23.90;99.90
19654;DHT22;9975;48.046;7.804;2023-07-29T09:30:42;23.90;99.90
19654;DHT22;9975;48.046;7.804;2023-07-29T09:33:10;23.90;99.90
19654;DHT22;9975;48.046;7.804;2023-07-29T09:35:37;23.90;99.90
19654;DHT22;9975;48.046;7.804;2023-07-29T09:38:06;23.90;99.90
19654;DHT22;9975;48.046;7.804;2023-07-29T09:40:40;23.90;99.90
19654;DHT22;9975;48.046;7.804;2023-07-29T09:43:06;24.00;99.90
19654;DHT22;9975;48.046;7.804;2023-07-29T09:45:36;24.10;99.90
19654;DHT22;9975;48.046;7.804;2023-07-29T09:48:03;24.10;99.90
19654;DHT22;9975;48.046;7.804;2023-07-29T09:50:30;24.20;99.90
19654;DHT22;9975;48.046;7.804;2023-07-29T09:52:57;24.30;99.90
19654;DHT22;9975;48.046;7.804;2023-07-29T09:55:25;24.50;99.90
19654;DHT22;9975;48.046;7.804;2023-07-29T09:57:58;24.60;99.90
19654;DHT22;9975;48.046;7.804;2023-07-29T10:00:29;24.50;99.90
19654;DHT22;9975;48.046;7.804;2023-07-29T10:02:55;24.60;99.90
19654;DHT22;9975;48.046;7.804;2023-07-29T10:05:22;24.60;99.90
19654;DHT22;9975;48.046;7.804;2023-07-29T10:07:49;24.50;99.80
19654;DHT22;9975;48.046;7.804;2023-07-29T10:10:15;24.40;99.90
19654;DHT22;9975;48.046;7.804;2023-07-29T10:12:41;24.40;99.90
19654;DHT22;9975;48.046;7.804;2023-07-29T10:15:08;24.50;99.90
19654;DHT22;9975;48.046;7.804;2023-07-29T10:17:36;24.50;99.90
19654;DHT22;9975;48.046;7.804;2023-07-29T10:20:06;24.40;99.90
19654;DHT22;9975;48.046;7.804;2023-07-29T10:22:42;24.50;99.90
19654;DHT22;9975;48.046;7.804;2023-07-29T10:25:13;24.50;99.90
19654;DHT22;9975;48.046;7.804;2023-07-29T10:27:52;24.60;99.90
19654;DHT22;9975;48.046;7.804;2023-07-29T10:30:18;24.80;99.90
19654;DHT22;9975;48.046;7.804;2023-07-29T10:32:45;24.60;99.90
19654;DHT22;9975;48.046;7.804;2023-07-29T10:35:12;24.40;99.90
19654;DHT22;9975;48.046;7.804;2023-07-29T10:37:39;24.50;99.90
19654;DHT22;9975;48.046;7.804;2023-07-29T10:40:10;24.60;99.90
19654;DHT22;9975;48.046;7.804;2023-07-29T10:43:00;24.80;99.90
19654;DHT22;9975;48.046;7.804;2023-07-29T10:45:39;25.00;99.90
19654;DHT22;9975;48.046;7.804;2023-07-29T10:50:34;25.40;99.30
19654;DHT22;9975;48.046;7.804;2023-07-29T10:52:59;25.60;99.00
19654;DHT22;9975;48.046;7.804;2023-07-29T10:55:43;25.50;98.10
19654;DHT22;9975;48.046;7.804;2023-07-29T10:58:14;25.50;98.70
19654;DHT22;9975;48.046;7.804;2023-07-29T11:00:43;25.60;98.20
19654;DHT22;9975;48.046;7.804;2023-07-29T11:03:09;25.70;96.90
19654;DHT22;9975;48.046;7.804;2023-07-29T11:05:46;25.90;96.70
19654;DHT22;9975;48.046;7.804;2023-07-29T11:08:21;26.00;95.60
19654;DHT22;9975;48.046;7.804;2023-07-29T11:11:04;25.90;94.90
19654;DHT22;9975;48.046;7.804;2023-07-29T11:13:31;26.00;93.70
19654;DHT22;9975;48.046;7.804;2023-07-29T11:15:58;26.30;92.30
19654;DHT22;9975;48.046;7.804;2023-07-29T11:18:29;26.30;92.60
19654;DHT22;9975;48.046;7.804;2023-07-29T11:20:55;26.40;91.60
19654;DHT22;9975;48.046;7.804;2023-07-29T11:23:27;26.40;91.30
19654;DHT22;9975;48.046;7.804;2023-07-29T11:25:54;26.30;90.60
19654;DHT22;9975;48.046;7.804;2023-07-29T11:28:20;26.40;90.10
19654;DHT22;9975;48.046;7.804;2023-07-29T11:30:47;26.40;87.60
19654;DHT22;9975;48.046;7.804;2023-07-29T11:33:13;26.40;88.70
19654;DHT22;9975;48.046;7.804;2023-07-29T11:35:39;26.50;87.10
19654;DHT22;9975;48.046;7.804;2023-07-29T11:38:06;26.60;86.30
19654;DHT22;9975;48.046;7.804;2023-07-29T11:40:32;26.90;85.10
19654;DHT22;9975;48.046;7.804;2023-07-29T11:42:57;27.00;83.90
19654;DHT22;9975;48.046;7.804;2023-07-29T11:45:23;27.10;85.20
19654;DHT22;9975;48.046;7.804;2023-07-29T11:47:49;27.30;84.10
19654;DHT22;9975;48.046;7.804;2023-07-29T11:50:15;27.00;81.30
19654;DHT22;9975;48.046;7.804;2023-07-29T11:52:43;26.70;83.50
19654;DHT22;9975;48.046;7.804;2023-07-29T11:55:09;26.70;83.60
19654;DHT22;9975;48.046;7.804;2023-07-29T11:57:38;26.80;84.80
19654;DHT22;9975;48.046;7.804;2023-07-29T12:00:06;26.80;78.40
19654;DHT22;9975;48.046;7.804;2023-07-29T12:02:33;26.90;77.70
19654;DHT22;9975;48.046;7.804;2023-07-29T12:05:03;26.90;78.00
19654;DHT22;9975;48.046;7.804;2023-07-29T12:07:30;27.10;80.10
19654;DHT22;9975;48.046;7.804;2023-07-29T12:09:55;27.30;80.70
19654;DHT22;9975;48.046;7.804;2023-07-29T12:12:22;27.40;79.20
19654;DHT22;9975;48.046;7.804;2023-07-29T12:14:48;27.50;76.20
19654;DHT22;9975;48.046;7.804;2023-07-29T12:17:14;27.40;74.70
19654;DHT22;9975;48.046;7.804;2023-07-29T12:19:41;27.20;73.50
19654;DHT22;9975;48.046;7.804;2023-07-29T12:22:09;27.10;75.00
19654;DHT22;9975;48.046;7.804;2023-07-29T12:24:37;27.20;75.70
19654;DHT22;9975;48.046;7.804;2023-07-29T12:27:03;27.20;76.90
19654;DHT22;9975;48.046;7.804;2023-07-29T12:29:28;27.20;74.80
19654;DHT22;9975;48.046;7.804;2023-07-29T12:31:59;27.00;76.80
19654;DHT22;9975;48.046;7.804;2023-07-29T12:34:26;26.90;75.70
19654;DHT22;9975;48.046;7.804;2023-07-29T12:36:53;26.80;76.60
19654;DHT22;9975;48.046;7.804;2023-07-29T12:39:23;26.70;77.20
19654;DHT22;9975;48.046;7.804;2023-07-29T12:41:50;26.60;78.00
19654;DHT22;9975;48.046;7.804;2023-07-29T12:44:16;26.50;77.30
19654;DHT22;9975;48.046;7.804;2023-07-29T12:46:41;26.40;77.90
19654;DHT22;9975;48.046;7.804;2023-07-29T12:49:07;26.50;77.00
19654;DHT22;9975;48.046;7.804;2023-07-29T12:51:33;26.50;77.10
19654;DHT22;9975;48.046;7.804;2023-07-29T12:53:59;26.60;78.20
19654;DHT22;9975;48.046;7.804;2023-07-29T12:56:25;26.50;78.70
19654;DHT22;9975;48.046;7.804;2023-07-29T12:58:51;26.50;78.10
19654;DHT22;9975;48.046;7.804;2023-07-29T13:01:17;26.50;77.20
19654;DHT22;9975;48.046;7.804;2023-07-29T13:03:44;26.40;78.30
19654;DHT22;9975;48.046;7.804;2023-07-29T13:06:10;26.40;77.30
19654;DHT22;9975;48.046;7.804;2023-07-29T13:08:35;26.50;78.20
19654;DHT22;9975;48.046;7.804;2023-07-29T13:11:01;26.50;78.30
19654;DHT22;9975;48.046;7.804;2023-07-29T13:13:27;26.60;78.50
19654;DHT22;9975;48.046;7.804;2023-07-29T13:15:52;26.60;76.20
19654;DHT22;9975;48.046;7.804;2023-07-29T13:18:18;26.60;76.90
19654;DHT22;9975;48.046;7.804;2023-07-29T13:20:44;26.70;77.70
19654;DHT22;9975;48.046;7.804;2023-07-29T13:23:09;26.80;78.00
19654;DHT22;9975;48.046;7.804;2023-07-29T13:25:35;26.80;77.00
19654;DHT22;9975;48.046;7.804;2023-07-29T13:28:00;26.80;76.00
19654;DHT22;9975;48.046;7.804;2023-07-29T13:30:26;26.80;75.90
19654;DHT22;9975;48.046;7.804;2023-07-29T13:32:52;26.70;74.60
19654;DHT22;9975;48.046;7.804;2023-07-29T13:35:17;26.50;75.40
19654;DHT22;9975;48.046;7.804;2023-07-29T13:37:43;26.50;75.50
19654;DHT22;9975;48.046;7.804;2023-07-29T13:40:08;26.50;76.00
19654;DHT22;9975;48.046;7.804;2023-07-29T13:42:34;26.30;75.40
19654;DHT22;9975;48.046;7.804;2023-07-29T13:45:00;26.00;74.80
19654;DHT22;9975;48.046;7.804;2023-07-29T13:47:26;25.80;76.70
19654;DHT22;9975;48.046;7.804;2023-07-29T13:49:51;25.80;77.20
19654;DHT22;9975;48.046;7.804;2023-07-29T13:52:17;25.90;77.00
19654;DHT22;9975;48.046;7.804;2023-07-29T13:54:42;25.80;76.40
19654;DHT22;9975;48.046;7.804;2023-07-29T13:57:08;25.80;76.90
19654;DHT22;9975;48.046;7.804;2023-07-29T13:59:35;25.80;78.10
19654;DHT22;9975;48.046;7.804;2023-07-29T14:02:06;25.70;78.90
19654;DHT22;9975;48.046;7.804;2023-07-29T14:04:32;25.70;77.60
19654;DHT22;9975;48.046;7.804;2023-07-29T14:06:58;25.80;77.70
19654;DHT22;9975;48.046;7.804;2023-07-29T14:09:24;25.90;78.50
19654;DHT22;9975;48.046;7.804;2023-07-29T14:11:50;25.90;78.80
19654;DHT22;9975;48.046;7.804;2023-07-29T14:14:15;25.80;78.50
19654;DHT22;9975;48.046;7.804;2023-07-29T14:16:41;25.80;79.20
19654;DHT22;9975;48.046;7.804;2023-07-29T14:19:07;25.70;77.60
19654;DHT22;9975;48.046;7.804;2023-07-29T14:21:33;25.70;77.40
19654;DHT22;9975;48.046;7.804;2023-07-29T14:23:58;25.60;78.00
19654;DHT22;9975;48.046;7.804;2023-07-29T14:26:24;25.50;79.00
19654;DHT22;9975;48.046;7.804;2023-07-29T14:28:50;25.50;80.50
19654;DHT22;9975;48.046;7.804;2023-07-29T14:31:16;25.40;80.40
19654;DHT22;9975;48.046;7.804;2023-07-29T14:33:44;25.40;81.90
19654;DHT22;9975;48.046;7.804;2023-07-29T14:36:10;25.20;82.10
19654;DHT22;9975;48.046;7.804;2023-07-29T14:38:36;24.90;84.40
19654;DHT22;9975;48.046;7.804;2023-07-29T14:41:02;24.70;85.70
19654;DHT22;9975;48.046;7.804;2023-07-29T14:43:30;24.50;86.90
19654;DHT22;9975;48.046;7.804;2023-07-29T14:45:56;24.50;88.10
19654;DHT22;9975;48.046;7.804;2023-07-29T14:48:22;24.40;89.30
19654;DHT22;9975;48.046;7.804;2023-07-29T14:50:48;24.50;90.40
19654;DHT22;9975;48.046;7.804;2023-07-29T14:53:14;24.30;93.80
19654;DHT22;9975;48.046;7.804;2023-07-29T14:55:39;24.30;94.70
19654;DHT22;9975;48.046;7.804;2023-07-29T14:58:05;24.20;97.50
19654;DHT22;9975;48.046;7.804;2023-07-29T15:00:31;23.90;98.80
19654;DHT22;9975;48.046;7.804;2023-07-29T15:02:56;23.80;99.90
19654;DHT22;9975;48.046;7.804;2023-07-29T15:05:22;23.70;99.90
19654;DHT22;9975;48.046;7.804;2023-07-29T15:07:47;23.50;99.90
19654;DHT22;9975;48.046;7.804;2023-07-29T15:10:17;23.50;99.90
19654;DHT22;9975;48.046;7.804;2023-07-29T15:12:43;23.60;99.90
19654;DHT22;9975;48.046;7.804;2023-07-29T15:15:10;23.60;99.90
19654;DHT22;9975;48.046;7.804;2023-07-29T15:17:36;23.50;99.90
19654;DHT22;9975;48.046;7.804;2023-07-29T15:20:02;23.60;99.90
19654;DHT22;9975;48.046;7.804;2023-07-29T15:22:29;23.60;99.90
19654;DHT22;9975;48.046;7.804;2023-07-29T15:24:55;23.80;99.90
19654;DHT22;9975;48.046;7.804;2023-07-29T15:27:21;23.90;99.90
19654;DHT22;9975;48.046;7.804;2023-07-29T15:29:47;23.90;99.90
19654;DHT22;9975;48.046;7.804;2023-07-29T15:32:13;23.90;99.90
19654;DHT22;9975;48.046;7.804;2023-07-29T15:34:39;23.90;99.90
19654;DHT22;9975;48.046;7.804;2023-07-29T15:37:04;23.90;99.90
19654;DHT22;9975;48.046;7.804;2023-07-29T15:39:30;23.90;99.90
19654;DHT22;9975;48.046;7.804;2023-07-29T15:41:56;23.90;99.90
19654;DHT22;9975;48.046;7.804;2023-07-29T15:44:22;24.00;99.90
19654;DHT22;9975;48.046;7.804;2023-07-29T15:46:48;24.00;99.90
19654;DHT22;9975;48.046;7.804;2023-07-29T15:49:17;23.90;99.90
19654;DHT22;9975;48.046;7.804;2023-07-29T15:51:42;24.10;99.90
19654;DHT22;9975;48.046;7.804;2023-07-29T15:54:08;24.10;99.90
19654;DHT22;9975;48.046;7.804;2023-07-29T15:56:34;23.80;99.90
19654;DHT22;9975;48.046;7.804;2023-07-29T15:59:04;22.60;99.90
19654;DHT22;9975;48.046;7.804;2023-07-29T16:01:29;23.90;99.90
19654;DHT22;9975;48.046;7.804;2023-07-29T16:03:55;23.90;99.90
19654;DHT22;9975;48.046;7.804;2023-07-29T16:06:21;24.10;99.90
19654;DHT22;9975;48.046;7.804;2023-07-29T16:08:47;24.10;99.90
19654;DHT22;9975;48.046;7.804;2023-07-29T16:11:13;23.60;99.90
19654;DHT22;9975;48.046;7.804;2023-07-29T16:13:39;23.30;99.90
19654;DHT22;9975;48.046;7.804;2023-07-29T16:16:04;23.30;99.90
19654;DHT22;9975;48.046;7.804;2023-07-29T16:18:31;23.20;99.90
19654;DHT22;9975;48.046;7.804;2023-07-29T16:20:57;23.20;99.90
19654;DHT22;9975;48.046;7.804;2023-07-29T16:23:36;23.10;99.90
19654;DHT22;9975;48.046;7.804;2023-07-29T16:26:02;23.20;99.90
19654;DHT22;9975;48.046;7.804;2023-07-29T16:28:27;23.20;99.90
19654;DHT22;9975;48.046;7.804;2023-07-29T16:30:53;23.10;99.90
19654;DHT22;9975;48.046;7.804;2023-07-29T16:33:19;23.00;99.90
19654;DHT22;9975;48.046;7.804;2023-07-29T16:35:44;23.00;99.90
19654;DHT22;9975;48.046;7.804;2023-07-29T16:38:10;23.10;99.90
19654;DHT22;9975;48.046;7.804;2023-07-29T16:40:36;23.10;99.90
19654;DHT22;9975;48.046;7.804;2023-07-29T16:43:01;23.10;99.90
19654;DHT22;9975;48.046;7.804;2023-07-29T16:45:27;23.10;99.90
19654;DHT22;9975;48.046;7.804;2023-07-29T16:47:53;23.10;99.90
19654;DHT22;9975;48.046;7.804;2023-07-29T16:50:19;22.90;99.90
19654;DHT22;9975;48.046;7.804;2023-07-29T16:52:45;22.90;99.90
19654;DHT22;9975;48.046;7.804;2023-07-29T16:55:11;22.90;99.90
19654;DHT22;9975;48.046;7.804;2023-07-29T16:57:37;22.70;99.90
19654;DHT22;9975;48.046;7.804;2023-07-29T17:00:04;22.70;99.90
19654;DHT22;9975;48.046;7.804;2023-07-29T17:02:29;22.70;99.90
19654;DHT22;9975;48.046;7.804;2023-07-29T17:04:55;22.80;99.90
19654;DHT22;9975;48.046;7.804;2023-07-29T17:07:20;22.70;99.90
19654;DHT22;9975;48.046;7.804;2023-07-29T17:09:46;22.60;99.90
19654;DHT22;9975;48.046;7.804;2023-07-29T17:12:12;22.60;99.90
19654;DHT22;9975;48.046;7.804;2023-07-29T17:14:38;22.60;99.90
19654;DHT22;9975;48.046;7.804;2023-07-29T17:17:04;22.60;99.90
19654;DHT22;9975;48.046;7.804;2023-07-29T17:19:30;22.30;99.90
19654;DHT22;9975;48.046;7.804;2023-07-29T17:21:55;22.40;99.90
19654;DHT22;9975;48.046;7.804;2023-07-29T17:24:21;22.40;99.90
19654;DHT22;9975;48.046;7.804;2023-07-29T17:26:47;22.30;99.90
19654;DHT22;9975;48.046;7.804;2023-07-29T17:29:12;22.30;99.90
19654;DHT22;9975;48.046;7.804;2023-07-29T17:31:38;22.20;99.90
19654;DHT22;9975;48.046;7.804;2023-07-29T17:34:03;22.30;99.90
19654;DHT22;9975;48.046;7.804;2023-07-29T17:36:29;22.20;99.90
19654;DHT22;9975;48.046;7.804;2023-07-29T17:38:55;22.30;99.90